Terminal Aerodrome Forecast
Issued by NWS

Home | Current Version | Previous Version | Text Only | Print | Product List | Glossary On
Versions: 1 2 3 4 5 6 7 8 9 10 11 12 13 14 15 16 17 18
000
FTUS45 KGGW 011500 AAB
TAFSDY
TAF AMD
KSDY 011501Z 0115/0212 01007KT 5SM FU SCT005 BKN015
     FM011700 VRB05KT P6SM SCT015
     FM011800 VRB05KT P6SM VCTS BKN060CB
     FM020000 02007KT P6SM -TSRA BKN050CB
     FM020600 VRB03KT P6SM BKN100
      AMD LTD TO CLD VIS AND WIND=

USA.gov is the U.S. government's official web portal to all federal, state and local government web resources and services.